Time;durP1;ratioP1;P1;durP2;ratioP2;P2;SDS_P1;SDS_P2;PMS_P1;PMS_P2;Temp;Humidity;BMP_temperature;BMP_pressure;BME280_temperature;BME280_humidity;BME280_pressure;Samples;Min_cycle;Max_cycle;Signal;HPM_P1;HPM_P2
2023/01/23 00:01:25;;;;;;;13.75;8.52;;;3.00;99.90;;;;;;5072247;28;20114;-91
2023/01/23 00:03:56;;;;;;;17.77;8.15;;;2.90;99.90;;;;;;5083983;28;20079;-91
2023/01/23 00:06:22;;;;;;;14.60;7.88;;;2.90;99.90;;;;;;5079409;28;20043;-91
2023/01/23 00:08:48;;;;;;;17.42;8.25;;;2.90;99.90;;;;;;5082643;28;20416;-91
2023/01/23 00:11:23;;;;;;;21.02;8.90;;;2.90;99.90;;;;;;5065695;28;20036;-92
2023/01/23 00:13:49;;;;;;;12.50;8.55;;;3.00;99.90;;;;;;5064369;28;20428;-92
2023/01/23 00:16:21;;;;;;;14.70;8.40;;;3.00;99.90;;;;;;5084474;28;20089;-91
2023/01/23 00:18:48;;;;;;;16.02;8.20;;;2.90;99.90;;;;;;5077244;28;20040;-93
2023/01/23 00:21:16;;;;;;;13.68;7.30;;;2.90;99.90;;;;;;5066259;28;20032;-91
2023/01/23 00:23:47;;;;;;;18.73;8.43;;;3.00;99.90;;;;;;5093111;27;20102;-92
2023/01/23 00:26:16;;;;;;;13.38;8.77;;;3.00;99.90;;;;;;5082612;28;20047;-91
2023/01/23 00:28:43;;;;;;;16.58;8.40;;;2.90;99.90;;;;;;5066050;28;20036;-91
2023/01/23 00:31:14;;;;;;;20.58;9.15;;;3.00;99.90;;;;;;5082926;28;20582;-92
2023/01/23 00:33:41;;;;;;;18.00;8.95;;;2.90;99.90;;;;;;5098266;28;20057;-92
2023/01/23 00:36:07;;;;;;;15.48;8.43;;;2.90;99.90;;;;;;5065022;28;20028;-92
2023/01/23 00:38:34;;;;;;;15.55;8.05;;;3.00;99.90;;;;;;5062382;28;20040;-91
2023/01/23 00:41:01;;;;;;;18.90;9.02;;;3.00;99.90;;;;;;5065078;28;20028;-92
2023/01/23 00:43:28;;;;;;;15.05;8.10;;;3.00;99.90;;;;;;5065207;28;20046;-91
2023/01/23 00:45:54;;;;;;;15.68;8.45;;;3.00;99.90;;;;;;5078704;28;20068;-92
2023/01/23 00:48:19;;;;;;;15.02;8.30;;;3.00;99.90;;;;;;5086714;28;20039;-92
2023/01/23 00:50:45;;;;;;;14.98;8.00;;;3.00;99.90;;;;;;5063848;28;20054;-92
2023/01/23 00:53:12;;;;;;;14.43;7.72;;;3.00;99.90;;;;;;5066488;28;20044;-91
2023/01/23 00:55:41;;;;;;;18.05;8.82;;;2.90;99.90;;;;;;5064981;28;20032;-92
2023/01/23 00:58:07;;;;;;;18.10;8.32;;;3.00;99.90;;;;;;5082424;28;20084;-91
2023/01/23 01:00:34;;;;;;;19.17;7.93;;;2.90;99.90;;;;;;5068337;28;20506;-92
2023/01/23 01:03:00;;;;;;;15.68;8.35;;;2.90;99.90;;;;;;5067144;28;20035;-91
2023/01/23 01:05:27;;;;;;;16.73;8.20;;;2.90;99.90;;;;;;5062696;28;20036;-91
2023/01/23 01:07:56;;;;;;;14.88;7.95;;;3.10;99.90;;;;;;5091998;28;20036;-91
2023/01/23 01:10:21;;;;;;;15.77;7.70;;;3.00;99.90;;;;;;5078014;28;20040;-92
2023/01/23 01:12:48;;;;;;;15.02;7.97;;;3.00;99.90;;;;;;5081424;28;20028;-91
2023/01/23 01:15:14;;;;;;;16.02;8.13;;;2.90;99.90;;;;;;5081251;28;20048;-92
2023/01/23 01:17:40;;;;;;;16.30;8.20;;;3.00;99.90;;;;;;5076222;28;20520;-91
2023/01/23 01:20:06;;;;;;;14.35;7.95;;;3.00;99.90;;;;;;5077833;28;20067;-92
2023/01/23 01:22:35;;;;;;;13.40;7.90;;;3.00;99.90;;;;;;5065980;28;20039;-92
2023/01/23 01:25:01;;;;;;;13.75;8.05;;;2.90;99.90;;;;;;5062545;28;20044;-92
2023/01/23 01:27:27;;;;;;;18.60;8.52;;;3.00;99.90;;;;;;5094390;28;20063;-92
2023/01/23 01:29:53;;;;;;;15.73;9.00;;;3.00;99.90;;;;;;5085525;28;20065;-92
2023/01/23 01:32:18;;;;;;;14.65;8.10;;;2.90;99.90;;;;;;5067534;28;20470;-92
2023/01/23 01:34:44;;;;;;;12.55;8.50;;;3.00;99.90;;;;;;5065742;28;20050;-92
2023/01/23 01:37:10;;;;;;;16.98;8.82;;;3.00;99.90;;;;;;5084165;28;20040;-91
2023/01/23 01:39:38;;;;;;;13.38;8.23;;;2.90;99.90;;;;;;5066659;28;20043;-91
2023/01/23 01:42:04;;;;;;;13.45;8.27;;;3.00;99.90;;;;;;5094767;27;20033;-92
2023/01/23 01:44:57;;;;;;;15.23;8.88;;;3.00;99.90;;;;;;5065638;28;20051;-92
2023/01/23 01:47:23;;;;;;;16.00;9.07;;;3.00;99.90;;;;;;5065886;28;20079;-92
2023/01/23 01:49:54;;;;;;;15.10;8.57;;;3.10;99.90;;;;;;5067218;28;20827;-92
2023/01/23 01:52:21;;;;;;;15.05;8.15;;;3.00;99.90;;;;;;5073763;28;20503;-92
2023/01/23 01:55:01;;;;;;;16.25;7.53;;;3.10;99.90;;;;;;5061930;28;20091;-91
2023/01/23 01:57:35;;;;;;;17.45;8.70;;;3.10;99.90;;;;;;5064290;28;20024;-92
2023/01/23 02:00:09;;;;;;;14.60;8.40;;;3.10;99.90;;;;;;5079518;28;20062;-91
2023/01/23 02:03:00;;;;;;;14.13;9.15;;;3.00;99.90;;;;;;5080307;28;20097;-91
2023/01/23 02:05:41;;;;;;;14.55;8.57;;;3.10;99.90;;;;;;5081122;28;20172;-92
2023/01/23 02:08:26;;;;;;;20.95;9.27;;;3.00;99.90;;;;;;5062817;28;20029;-92
2023/01/23 02:10:52;;;;;;;15.23;8.93;;;3.10;99.90;;;;;;5061592;28;20076;-92
2023/01/23 02:13:31;;;;;;;15.60;8.27;;;3.10;99.90;;;;;;5056804;28;20048;-92
2023/01/23 02:16:05;;;;;;;14.35;9.25;;;3.00;99.90;;;;;;5080797;28;20331;-92
2023/01/23 02:18:33;;;;;;;16.57;9.07;;;3.00;99.90;;;;;;5057847;28;20101;-92
2023/01/23 02:21:03;;;;;;;16.02;9.30;;;3.20;99.90;;;;;;5073178;28;20293;-91
2023/01/23 02:23:55;;;;;;;12.13;8.57;;;3.00;99.90;;;;;;5060516;28;20075;-91
2023/01/23 02:26:35;;;;;;;15.23;9.48;;;3.10;99.90;;;;;;5088575;28;20113;-92
2023/01/23 02:29:02;;;;;;;18.02;9.32;;;3.00;99.90;;;;;;5076281;28;20238;-92
2023/01/23 02:31:28;;;;;;;15.73;8.70;;;3.10;99.90;;;;;;5061382;28;20072;-92
2023/01/23 02:33:58;;;;;;;15.25;9.40;;;3.00;99.90;;;;;;5097440;28;20068;-92
2023/01/23 02:36:30;;;;;;;19.27;9.57;;;3.10;99.90;;;;;;5068486;28;20137;-91
2023/01/23 02:39:12;;;;;;;15.55;9.95;;;3.10;99.90;;;;;;5078216;28;20046;-91
2023/01/23 02:41:41;;;;;;;14.73;9.07;;;3.00;99.90;;;;;;5077484;28;20036;-92
2023/01/23 02:44:28;;;;;;;15.40;8.98;;;3.10;99.90;;;;;;5105219;28;20165;-92
2023/01/23 02:46:56;;;;;;;16.77;9.80;;;3.10;99.90;;;;;;5081816;28;20157;-92
2023/01/23 02:49:22;;;;;;;15.20;9.25;;;3.10;99.90;;;;;;5059891;28;20081;-91
2023/01/23 02:51:49;;;;;;;16.42;10.35;;;3.10;99.90;;;;;;5059387;28;20486;-92
2023/01/23 02:54:15;;;;;;;15.38;9.30;;;3.10;99.90;;;;;;5079162;28;20074;-92
2023/01/23 02:56:44;;;;;;;15.90;9.77;;;3.10;99.90;;;;;;5059303;28;20047;-92
2023/01/23 03:01:55;;;;;;;17.58;10.32;;;3.00;99.90;;;;;;5077021;28;20048;-92
2023/01/23 03:04:21;;;;;;;15.13;9.50;;;3.00;99.90;;;;;;5062810;28;20138;-92
2023/01/23 03:06:47;;;;;;;18.55;10.68;;;3.00;99.90;;;;;;5060443;28;20111;-92
2023/01/23 03:09:15;;;;;;;17.67;10.65;;;3.00;99.90;;;;;;5076315;28;20044;-92
2023/01/23 03:11:43;;;;;;;18.05;10.65;;;3.10;99.90;;;;;;5062419;28;20063;-92
2023/01/23 03:14:12;;;;;;;17.65;10.43;;;3.00;99.90;;;;;;5078799;28;20055;-92
2023/01/23 03:16:39;;;;;;;15.80;10.15;;;2.90;99.90;;;;;;5071457;28;20040;-93
2023/01/23 03:19:09;;;;;;;20.30;10.30;;;3.00;99.90;;;;;;5078428;28;20050;-91
2023/01/23 03:21:39;;;;;;;17.63;10.57;;;3.00;99.90;;;;;;5065219;28;20036;-92
2023/01/23 03:24:06;;;;;;;21.45;11.50;;;3.10;99.90;;;;;;5066520;28;20538;-92
2023/01/23 03:26:32;;;;;;;19.58;11.00;;;3.10;99.90;;;;;;5060194;28;20052;-91
2023/01/23 03:31:45;;;;;;;19.00;11.47;;;3.00;99.90;;;;;;5095330;28;20048;-92
2023/01/23 03:34:11;;;;;;;21.00;11.85;;;3.10;99.90;;;;;;5080443;28;20043;-91
2023/01/23 03:36:37;;;;;;;19.33;11.23;;;3.00;99.90;;;;;;5063401;28;20066;-92
2023/01/23 03:41:52;;;;;;;19.73;11.77;;;3.00;99.90;;;;;;5076313;28;20367;-92
2023/01/23 03:44:18;;;;;;;21.33;12.10;;;3.10;99.90;;;;;;5060468;28;20054;-91
2023/01/23 03:46:45;;;;;;;19.80;11.00;;;2.90;99.90;;;;;;5062730;28;20063;-92
2023/01/23 03:49:11;;;;;;;17.95;11.93;;;3.00;99.90;;;;;;5084530;28;20047;-92
2023/01/23 03:51:39;;;;;;;19.15;11.57;;;3.10;99.90;;;;;;5062288;28;20039;-91
2023/01/23 03:54:05;;;;;;;18.13;11.10;;;2.90;99.90;;;;;;5062663;28;20666;-91
2023/01/23 03:56:30;;;;;;;19.20;12.15;;;3.00;99.90;;;;;;5081841;28;20052;-92
2023/01/23 03:58:57;;;;;;;18.58;11.98;;;3.00;99.90;;;;;;5062665;28;21279;-92
2023/01/23 04:01:23;;;;;;;21.48;12.23;;;3.00;99.90;;;;;;5083010;28;20115;-92
2023/01/23 04:03:49;;;;;;;19.77;11.95;;;2.90;99.90;;;;;;5064759;28;20177;-92
2023/01/23 04:06:15;;;;;;;23.38;12.57;;;3.00;99.90;;;;;;5083917;28;20048;-91
2023/01/23 04:08:44;;;;;;;24.05;12.75;;;3.10;99.90;;;;;;5083157;28;20047;-92
2023/01/23 04:11:10;;;;;;;21.13;13.05;;;2.90;99.90;;;;;;5086498;28;20362;-92
2023/01/23 04:13:36;;;;;;;21.02;12.40;;;3.00;99.90;;;;;;5058783;28;20032;-92
2023/01/23 04:16:02;;;;;;;21.83;12.82;;;3.00;99.90;;;;;;5067196;28;20048;-92
2023/01/23 04:18:28;;;;;;;22.48;12.20;;;3.00;99.90;;;;;;5080877;28;20038;-92
2023/01/23 04:20:54;;;;;;;20.45;12.23;;;3.10;99.90;;;;;;5084706;28;20461;-92
2023/01/23 04:23:24;;;;;;;20.38;11.70;;;2.90;99.90;;;;;;5082440;28;20357;-92
2023/01/23 04:25:50;;;;;;;22.90;12.10;;;2.90;99.90;;;;;;5063779;28;20055;-92
2023/01/23 04:28:17;;;;;;;17.63;10.80;;;3.00;99.90;;;;;;5080179;28;20105;-90
2023/01/23 04:30:43;;;;;;;21.60;11.65;;;3.00;99.90;;;;;;5081431;28;20054;-92
2023/01/23 04:33:08;;;;;;;21.98;11.95;;;3.10;99.90;;;;;;5061470;28;20048;-92
2023/01/23 04:35:34;;;;;;;22.58;12.50;;;3.00;99.90;;;;;;5068286;28;20036;-92
2023/01/23 04:38:00;;;;;;;16.60;10.73;;;3.00;99.90;;;;;;5079183;28;20418;-91
2023/01/23 04:40:26;;;;;;;18.27;11.48;;;3.00;99.90;;;;;;5090631;28;20048;-91
2023/01/23 04:42:52;;;;;;;18.02;11.55;;;3.10;99.90;;;;;;5078298;28;20331;-91
2023/01/23 04:45:17;;;;;;;20.25;11.60;;;3.00;99.90;;;;;;5082476;28;20447;-91
2023/01/23 04:47:43;;;;;;;18.10;11.15;;;3.10;99.90;;;;;;5080549;28;20679;-91
2023/01/23 04:50:10;;;;;;;20.05;11.43;;;2.90;99.90;;;;;;5063707;28;20477;-92
2023/01/23 04:52:36;;;;;;;24.10;11.82;;;3.10;99.90;;;;;;5081255;28;20115;-90
2023/01/23 04:55:01;;;;;;;19.35;11.15;;;3.00;99.90;;;;;;5076662;28;20040;-91
2023/01/23 04:57:27;;;;;;;18.58;10.82;;;3.10;99.90;;;;;;5065543;28;20047;-91
2023/01/23 04:59:56;;;;;;;19.85;11.02;;;2.90;99.90;;;;;;5062220;28;20036;-91
2023/01/23 05:02:22;;;;;;;19.30;10.00;;;2.90;99.90;;;;;;5062749;28;20285;-91
2023/01/23 05:04:47;;;;;;;21.23;11.18;;;3.10;99.90;;;;;;5078687;28;20110;-92
2023/01/23 05:07:13;;;;;;;17.30;10.55;;;2.90;99.90;;;;;;5068115;28;20035;-91
2023/01/23 05:09:39;;;;;;;18.98;10.32;;;3.00;99.90;;;;;;5077945;28;20612;-92
2023/01/23 05:12:05;;;;;;;16.13;10.43;;;3.00;99.90;;;;;;5065064;28;20128;-91
2023/01/23 05:14:31;;;;;;;18.63;10.40;;;3.00;99.90;;;;;;5067381;28;20067;-92
2023/01/23 05:16:57;;;;;;;17.05;11.05;;;3.00;99.90;;;;;;5083884;28;20040;-91
2023/01/23 05:19:23;;;;;;;15.25;10.13;;;3.00;99.90;;;;;;5079132;28;20581;-91
2023/01/23 05:21:49;;;;;;;17.30;10.38;;;3.10;99.90;;;;;;5095870;28;20811;-91
2023/01/23 05:24:15;;;;;;;22.20;10.82;;;3.00;99.90;;;;;;5061855;28;20410;-91
2023/01/23 05:26:41;;;;;;;15.75;10.02;;;2.80;99.90;;;;;;5070719;28;20077;-92
2023/01/23 05:29:07;;;;;;;19.20;10.38;;;2.90;99.90;;;;;;5064579;28;20031;-91
2023/01/23 05:31:33;;;;;;;19.30;11.38;;;2.90;99.90;;;;;;5060440;28;20044;-92
2023/01/23 05:33:59;;;;;;;17.90;10.45;;;3.00;99.90;;;;;;5065186;28;20040;-91
2023/01/23 05:36:27;;;;;;;15.07;9.48;;;3.00;99.90;;;;;;5082672;28;20493;-91
2023/01/23 05:38:54;;;;;;;16.63;10.20;;;2.80;99.90;;;;;;5080853;28;20348;-91
2023/01/23 05:41:20;;;;;;;16.60;10.35;;;2.90;99.90;;;;;;5080453;28;20043;-91
2023/01/23 05:43:48;;;;;;;18.23;10.70;;;2.90;99.90;;;;;;5065169;28;20036;-91
2023/01/23 05:46:14;;;;;;;17.83;10.38;;;2.90;99.90;;;;;;5064043;28;20047;-92
2023/01/23 05:48:41;;;;;;;16.85;9.93;;;2.90;99.90;;;;;;5082374;28;20039;-92
2023/01/23 05:51:06;;;;;;;19.90;9.98;;;3.00;99.90;;;;;;5075426;28;20032;-92
2023/01/23 05:53:32;;;;;;;20.02;9.88;;;2.80;99.90;;;;;;5075687;28;20044;-91
2023/01/23 05:55:58;;;;;;;17.05;10.25;;;2.80;99.90;;;;;;5093303;28;20040;-91
2023/01/23 05:58:23;;;;;;;17.88;10.15;;;2.80;99.90;;;;;;5056428;28;20033;-91
2023/01/23 06:00:49;;;;;;;14.98;9.45;;;3.00;99.90;;;;;;5094526;28;20165;-91
2023/01/23 06:03:14;;;;;;;15.32;9.25;;;3.00;99.90;;;;;;5065484;28;20036;-91
2023/01/23 06:05:41;;;;;;;18.85;9.95;;;3.00;99.90;;;;;;5062618;28;20070;-91
2023/01/23 06:08:09;;;;;;;16.75;9.70;;;3.00;99.90;;;;;;5109979;27;20028;-91
2023/01/23 06:10:37;;;;;;;15.50;10.10;;;2.90;99.90;;;;;;5073423;28;20544;-91
2023/01/23 06:13:03;;;;;;;18.65;9.80;;;2.90;99.90;;;;;;5092112;27;20063;-92
2023/01/23 06:15:28;;;;;;;14.10;9.25;;;2.90;99.90;;;;;;5062923;28;20493;-92
2023/01/23 06:17:54;;;;;;;20.02;9.85;;;3.00;99.90;;;;;;5096128;28;20047;-91
2023/01/23 06:20:20;;;;;;;15.75;9.23;;;2.90;99.90;;;;;;5094320;28;20483;-91
2023/01/23 06:22:46;;;;;;;17.20;9.95;;;3.00;99.90;;;;;;5096585;28;20130;-92
2023/01/23 06:25:11;;;;;;;20.23;11.27;;;2.90;99.90;;;;;;5063496;28;20381;-91
2023/01/23 06:27:40;;;;;;;15.85;10.10;;;3.00;99.90;;;;;;5064256;28;20040;-91
2023/01/23 06:30:08;;;;;;;17.27;9.82;;;3.00;99.90;;;;;;5064886;28;20035;-91
2023/01/23 06:32:34;;;;;;;16.92;9.70;;;2.90;99.90;;;;;;5097792;28;20071;-91
2023/01/23 06:35:01;;;;;;;16.05;10.15;;;2.90;99.90;;;;;;5079065;28;20105;-91
2023/01/23 06:37:26;;;;;;;14.25;9.35;;;3.00;99.90;;;;;;5060533;28;20108;-91
2023/01/23 06:39:52;;;;;;;18.90;10.23;;;2.90;99.90;;;;;;5078233;28;20114;-91
2023/01/23 06:42:18;;;;;;;17.13;9.98;;;2.90;99.90;;;;;;5079411;28;20122;-91
2023/01/23 06:44:43;;;;;;;15.90;9.85;;;2.90;99.90;;;;;;5091022;28;20068;-92
2023/01/23 06:47:09;;;;;;;21.27;10.35;;;3.00;99.90;;;;;;5067984;28;20402;-92
2023/01/23 06:49:35;;;;;;;17.67;9.60;;;2.90;99.90;;;;;;5061310;28;20044;-91
2023/01/23 06:52:00;;;;;;;20.17;10.02;;;3.00;99.90;;;;;;5076748;28;20048;-92
2023/01/23 06:54:26;;;;;;;18.55;10.13;;;2.80;99.90;;;;;;5075503;28;20040;-91
2023/01/23 06:56:52;;;;;;;20.13;10.40;;;2.90;99.90;;;;;;5063826;28;20040;-92
2023/01/23 06:59:18;;;;;;;18.50;10.45;;;2.80;99.90;;;;;;5057757;28;20033;-91
2023/01/23 07:01:43;;;;;;;15.40;9.57;;;2.80;99.90;;;;;;5064684;28;20036;-91
2023/01/23 07:04:12;;;;;;;16.00;10.10;;;3.00;99.90;;;;;;5070652;28;20040;-91
2023/01/23 07:06:38;;;;;;;16.90;9.98;;;3.00;99.90;;;;;;5073793;28;20043;-91
2023/01/23 07:09:04;;;;;;;18.13;9.98;;;2.80;99.90;;;;;;5098915;28;20495;-92
2023/01/23 07:11:29;;;;;;;15.50;9.85;;;2.80;99.90;;;;;;5094190;28;20141;-91
2023/01/23 07:13:55;;;;;;;17.70;10.13;;;2.80;99.90;;;;;;5090347;28;20482;-91
2023/01/23 07:16:21;;;;;;;17.63;9.95;;;2.90;99.90;;;;;;5084255;28;20047;-91
2023/01/23 07:18:47;;;;;;;17.70;9.85;;;2.90;99.90;;;;;;5102259;28;20479;-91
2023/01/23 07:21:16;;;;;;;19.65;10.07;;;2.90;99.90;;;;;;5085035;28;20059;-91
2023/01/23 07:23:41;;;;;;;15.43;9.63;;;2.80;99.90;;;;;;5085700;28;20040;-91
2023/01/23 07:26:08;;;;;;;15.02;9.68;;;2.80;99.90;;;;;;5068927;28;20129;-91
2023/01/23 07:28:35;;;;;;;15.40;10.05;;;3.00;99.90;;;;;;5079784;28;20398;-91
2023/01/23 07:31:01;;;;;;;15.98;10.35;;;3.00;99.90;;;;;;5067085;28;20036;-91
2023/01/23 07:33:27;;;;;;;17.45;9.82;;;2.80;99.90;;;;;;5086931;28;20036;-92
2023/01/23 07:35:53;;;;;;;16.88;9.93;;;2.80;99.90;;;;;;5095955;28;20417;-91
2023/01/23 07:38:19;;;;;;;18.65;10.20;;;2.90;99.90;;;;;;5066095;28;20036;-91
2023/01/23 07:40:45;;;;;;;18.77;9.68;;;2.80;99.90;;;;;;5084162;28;20040;-91
2023/01/23 07:43:11;;;;;;;17.77;9.60;;;2.80;99.90;;;;;;5098021;28;20038;-92
2023/01/23 07:45:37;;;;;;;17.17;9.73;;;2.90;99.90;;;;;;5062210;28;20341;-92
2023/01/23 07:48:03;;;;;;;17.08;10.10;;;2.80;99.90;;;;;;5066012;28;20036;-91
2023/01/23 07:50:29;;;;;;;14.18;9.60;;;2.90;99.90;;;;;;5082623;28;20349;-91
2023/01/23 07:52:55;;;;;;;16.90;9.57;;;3.00;99.90;;;;;;5084596;28;20054;-92
2023/01/23 07:55:23;;;;;;;16.63;10.50;;;2.90;99.90;;;;;;5092090;27;20445;-92
2023/01/23 07:57:49;;;;;;;14.27;9.45;;;2.90;99.90;;;;;;5061705;28;20036;-92
2023/01/23 08:00:15;;;;;;;15.05;9.77;;;2.80;99.90;;;;;;5084136;28;20047;-91
2023/01/23 08:02:41;;;;;;;15.10;9.57;;;2.90;99.90;;;;;;5113862;27;20780;-91
2023/01/23 08:05:07;;;;;;;18.20;9.75;;;3.00;99.90;;;;;;5086442;28;20326;-91
2023/01/23 08:07:32;;;;;;;15.65;9.73;;;3.00;99.90;;;;;;5064983;28;20086;-92
2023/01/23 08:09:58;;;;;;;14.98;9.23;;;3.00;99.90;;;;;;5070978;28;20071;-91
2023/01/23 08:12:24;;;;;;;15.85;9.73;;;2.90;99.90;;;;;;5064829;28;20044;-92
2023/01/23 08:14:49;;;;;;;17.23;9.80;;;3.00;99.90;;;;;;5064303;28;20062;-91
2023/01/23 08:17:15;;;;;;;16.52;10.00;;;2.90;99.90;;;;;;5089193;28;20424;-91
2023/01/23 08:19:41;;;;;;;18.40;9.65;;;3.00;99.90;;;;;;5066287;28;20518;-91
2023/01/23 08:22:06;;;;;;;12.27;9.20;;;3.10;99.90;;;;;;5095336;28;20611;-91
2023/01/23 08:24:32;;;;;;;14.77;9.02;;;3.10;99.90;;;;;;5068477;28;20036;-92
2023/01/23 08:26:58;;;;;;;15.32;9.18;;;3.10;99.90;;;;;;5080400;28;20044;-92
2023/01/23 08:29:23;;;;;;;13.63;8.85;;;3.00;99.90;;;;;;5095666;28;20069;-92
2023/01/23 08:31:53;;;;;;;13.27;8.80;;;3.00;99.90;;;;;;5071136;28;20079;-92
2023/01/23 08:34:19;;;;;;;13.88;8.70;;;3.10;99.90;;;;;;5060601;28;20036;-90
2023/01/23 08:36:45;;;;;;;13.20;8.60;;;3.10;99.90;;;;;;5065105;28;20198;-91
2023/01/23 08:39:10;;;;;;;12.90;7.78;;;3.10;99.90;;;;;;5081637;28;20086;-91
2023/01/23 08:41:36;;;;;;;11.27;7.82;;;3.20;99.90;;;;;;5095296;28;20039;-91
2023/01/23 08:44:05;;;;;;;11.43;7.72;;;3.20;99.90;;;;;;5064479;28;20071;-91
2023/01/23 08:46:30;;;;;;;12.63;8.00;;;3.20;99.90;;;;;;5064648;28;20044;-91
2023/01/23 08:48:56;;;;;;;13.48;7.40;;;3.10;99.90;;;;;;5064309;28;20124;-91
2023/01/23 08:51:22;;;;;;;11.63;8.02;;;3.20;99.90;;;;;;5062671;28;20046;-91
2023/01/23 08:53:51;;;;;;;14.68;8.07;;;3.30;99.90;;;;;;5062641;28;20086;-91
2023/01/23 08:56:18;;;;;;;12.70;8.40;;;3.30;99.90;;;;;;5064188;28;20036;-92
2023/01/23 08:58:45;;;;;;;12.15;7.35;;;3.30;99.90;;;;;;5098448;27;20032;-91
2023/01/23 09:01:16;;;;;;;10.13;7.65;;;3.30;99.90;;;;;;5062155;28;20034;-91
2023/01/23 09:03:43;;;;;;;9.63;7.15;;;3.30;99.90;;;;;;5062756;28;20044;-92
2023/01/23 09:06:11;;;;;;;10.75;7.45;;;3.30;99.90;;;;;;5063202;28;20051;-92
2023/01/23 09:08:36;;;;;;;12.38;7.72;;;3.30;99.90;;;;;;5077770;28;20051;-91
2023/01/23 09:11:07;;;;;;;11.35;7.30;;;3.40;99.90;;;;;;5068825;28;20040;-91
2023/01/23 09:13:34;;;;;;;11.00;7.45;;;3.40;99.90;;;;;;5078808;28;20055;-92
2023/01/23 09:16:00;;;;;;;9.95;7.15;;;3.50;99.90;;;;;;5066483;28;20052;-91
2023/01/23 09:18:25;;;;;;;12.00;7.03;;;3.50;99.90;;;;;;5099190;28;20052;-92
2023/01/23 09:20:53;;;;;;;11.93;6.50;;;3.50;99.90;;;;;;5082407;28;20046;-92
2023/01/23 09:23:19;;;;;;;8.68;6.25;;;3.50;99.90;;;;;;5066622;28;20074;-91
2023/01/23 09:25:44;;;;;;;9.65;7.32;;;3.60;99.90;;;;;;5064155;28;20054;-92
2023/01/23 09:28:10;;;;;;;9.50;7.18;;;3.60;99.90;;;;;;5069188;28;20044;-91
2023/01/23 09:30:36;;;;;;;10.45;6.53;;;3.60;99.90;;;;;;5099138;28;20063;-91
2023/01/23 09:33:02;;;;;;;10.15;6.38;;;3.60;99.90;;;;;;5091172;28;20395;-91
2023/01/23 09:35:29;;;;;;;9.32;6.68;;;3.60;99.90;;;;;;5083152;28;20043;-91
2023/01/23 09:37:58;;;;;;;8.45;6.43;;;3.60;99.90;;;;;;5110630;27;20048;-91
2023/01/23 09:40:33;;;;;;;10.18;6.95;;;3.60;99.90;;;;;;5071869;28;20032;-91
2023/01/23 09:43:13;;;;;;;8.30;6.60;;;3.50;99.90;;;;;;5061848;28;20027;-92
2023/01/23 09:45:42;;;;;;;10.88;6.80;;;3.60;99.90;;;;;;5061834;28;20092;-91
2023/01/23 09:48:37;;;;;;;8.18;6.35;;;3.70;99.90;;;;;;5083964;28;20035;-91
2023/01/23 09:51:23;;;;;;;8.10;6.10;;;3.70;99.90;;;;;;5091759;28;20040;-92
2023/01/23 09:53:48;;;;;;;8.45;6.28;;;3.60;99.90;;;;;;5055465;28;20048;-92
2023/01/23 09:56:40;;;;;;;10.73;6.10;;;3.70;99.90;;;;;;5069376;28;20096;-91
2023/01/23 09:59:09;;;;;;;9.00;6.72;;;3.70;99.90;;;;;;5063098;28;20093;-91
2023/01/23 10:01:35;;;;;;;7.80;6.10;;;3.80;99.90;;;;;;5063554;28;20051;-91
2023/01/23 10:04:02;;;;;;;11.30;6.70;;;3.80;99.90;;;;;;5067229;28;20040;-92
2023/01/23 10:06:52;;;;;;;10.32;7.15;;;3.80;99.90;;;;;;5063954;28;20040;-91
2023/01/23 10:09:57;;;;;;;10.85;7.40;;;3.80;99.90;;;;;;5079908;28;20044;-92
2023/01/23 10:12:49;;;;;;;9.57;7.15;;;3.90;99.90;;;;;;5041768;28;20951;-92
2023/01/23 10:15:29;;;;;;;9.60;7.00;;;3.90;99.90;;;;;;5077755;28;20062;-91
2023/01/23 10:18:13;;;;;;;9.40;7.05;;;3.90;99.90;;;;;;5109322;27;20058;-92
2023/01/23 10:20:49;;;;;;;11.07;6.80;;;4.00;99.90;;;;;;5081934;28;20043;-92
2023/01/23 10:23:47;;;;;;;8.15;6.53;;;4.10;99.90;;;;;;5063753;28;20294;-92
2023/01/23 10:26:22;;;;;;;8.57;6.45;;;4.10;99.90;;;;;;5060871;28;20092;-91
2023/01/23 10:28:50;;;;;;;;;;;4.10;99.90;;;;;;5109200;27;20115;-92
2023/01/23 10:31:37;;;;;;;9.88;7.43;;;4.00;99.90;;;;;;5065386;28;20316;-91
2023/01/23 10:34:26;;;;;;;9.55;7.50;;;4.00;99.90;;;;;;5060411;28;20044;-92
2023/01/23 10:37:06;;;;;;;11.07;7.32;;;4.00;99.90;;;;;;5079887;28;20102;-92
2023/01/23 10:39:47;;;;;;;11.02;8.05;;;4.20;99.90;;;;;;5075503;28;20122;-91
2023/01/23 10:42:22;;;;;;;9.98;7.18;;;4.20;99.90;;;;;;5096084;28;20571;-92
2023/01/23 10:44:48;;;;;;;9.57;7.55;;;4.20;99.90;;;;;;5061389;28;20111;-91
2023/01/23 10:47:23;;;;;;;10.73;7.63;;;4.30;99.90;;;;;;5066183;28;20047;-91
2023/01/23 10:49:49;;;;;;;11.60;7.90;;;4.30;99.90;;;;;;5062952;28;20529;-92
2023/01/23 10:52:27;;;;;;;10.82;8.00;;;4.30;99.90;;;;;;5063227;28;20124;-92
2023/01/23 10:54:52;;;;;;;12.25;7.97;;;4.30;99.90;;;;;;5080489;28;20127;-91
2023/01/23 10:57:33;;;;;;;10.02;7.75;;;4.30;99.90;;;;;;5079144;28;20048;-92
2023/01/23 11:00:16;;;;;;;11.07;7.55;;;4.40;99.90;;;;;;5080978;28;20047;-91
2023/01/23 11:02:42;;;;;;;10.32;7.72;;;4.40;99.90;;;;;;5099814;28;20104;-91
2023/01/23 11:05:37;;;;;;;10.88;8.55;;;4.50;99.90;;;;;;5085749;28;20042;-91
2023/01/23 11:08:20;;;;;;;11.50;8.70;;;4.40;99.90;;;;;;5085738;28;20048;-91
2023/01/23 11:10:45;;;;;;;11.23;8.20;;;4.50;99.90;;;;;;5099276;28;20154;-91
2023/01/23 11:13:40;;;;;;;11.65;8.38;;;4.60;99.90;;;;;;5080743;28;20119;-91
2023/01/23 11:16:13;;;;;;;11.32;7.95;;;4.60;99.90;;;;;;5065870;28;20077;-91
2023/01/23 11:18:41;;;;;;;13.40;8.13;;;4.70;99.90;;;;;;5101981;27;20032;-92
2023/01/23 11:21:29;;;;;;;12.85;8.05;;;4.70;99.90;;;;;;5096966;27;20141;-92
2023/01/23 11:24:19;;;;;;;12.10;9.15;;;4.80;99.90;;;;;;5066877;28;20046;-92
2023/01/23 11:26:45;;;;;;;11.23;8.48;;;4.80;99.90;;;;;;5084690;28;20043;-91
2023/01/23 11:29:25;;;;;;;12.80;8.65;;;4.80;99.90;;;;;;5073100;28;20047;-91
2023/01/23 11:32:01;;;;;;;13.13;8.43;;;4.90;99.90;;;;;;5069576;28;20069;-91
2023/01/23 11:34:39;;;;;;;11.18;8.23;;;4.90;99.90;;;;;;5066337;28;20620;-92
2023/01/23 11:37:33;;;;;;;10.00;8.10;;;4.90;99.90;;;;;;5115572;27;20495;-92
2023/01/23 11:40:07;;;;;;;13.93;8.50;;;4.80;99.90;;;;;;5065807;28;20116;-92
2023/01/23 11:42:38;;;;;;;14.13;9.02;;;5.00;99.90;;;;;;5066759;28;20085;-92
2023/01/23 11:45:12;;;;;;;13.27;9.05;;;4.90;99.90;;;;;;5065978;28;20112;-91
2023/01/23 11:47:43;;;;;;;14.80;9.55;;;4.90;99.90;;;;;;5092612;28;20594;-91
2023/01/23 11:50:35;;;;;;;12.45;9.20;;;5.00;99.90;;;;;;5095386;28;20224;-91
2023/01/23 11:53:07;;;;;;;14.35;9.30;;;4.90;99.90;;;;;;5082102;28;20075;-91
2023/01/23 11:55:42;;;;;;;15.50;10.10;;;5.00;99.90;;;;;;5097398;28;20044;-91
2023/01/23 11:58:20;;;;;;;12.20;9.32;;;4.90;99.90;;;;;;5068575;28;20559;-92
2023/01/23 12:00:51;;;;;;;13.40;9.95;;;5.00;99.90;;;;;;5069504;28;20051;-91
2023/01/23 12:03:58;;;;;;;15.05;9.82;;;5.10;99.90;;;;;;5092558;28;20036;-89
2023/01/23 12:06:38;;;;;;;13.73;9.07;;;5.10;99.90;;;;;;5065121;28;20178;-91
2023/01/23 12:09:19;;;;;;;13.85;9.63;;;5.10;99.90;;;;;;5083062;28;20136;-92
2023/01/23 12:12:15;;;;;;;13.18;10.77;;;5.10;99.90;;;;;;5064586;28;20048;-91
2023/01/23 12:14:59;;;;;;;13.18;9.68;;;5.00;99.90;;;;;;5082914;28;20048;-91
2023/01/23 12:17:44;;;;;;;14.18;9.77;;;4.90;99.90;;;;;;5083936;28;20131;-91
2023/01/23 12:20:41;;;;;;;13.98;9.77;;;4.70;99.90;;;;;;5064499;28;20035;-91
2023/01/23 12:23:34;;;;;;;15.20;9.05;;;4.70;99.90;;;;;;5080272;28;20204;-91
2023/01/23 12:26:11;;;;;;;14.25;10.60;;;4.80;99.90;;;;;;5080917;28;20043;-91
2023/01/23 12:29:08;;;;;;;13.77;9.88;;;4.80;99.90;;;;;;5055548;28;20032;-91
2023/01/23 12:32:12;;;;;;;13.68;9.48;;;4.80;99.90;;;;;;5083860;28;20032;-91
2023/01/23 12:35:13;;;;;;;14.93;10.55;;;4.80;99.90;;;;;;5061052;28;20370;-91
2023/01/23 12:38:20;;;;;;;13.82;9.25;;;4.70;99.90;;;;;;5081400;28;20032;-91
2023/01/23 12:40:55;;;;;;;16.50;10.25;;;4.70;99.90;;;;;;5081607;28;20279;-91
2023/01/23 12:43:37;;;;;;;12.98;9.68;;;4.60;99.90;;;;;;5082089;28;20159;-91
2023/01/23 12:46:13;;;;;;;19.95;10.23;;;4.70;99.90;;;;;;5085391;28;20035;-91
2023/01/23 12:48:45;;;;;;;13.80;9.77;;;4.60;99.90;;;;;;5082810;28;20031;-91
2023/01/23 12:51:29;;;;;;;15.80;10.85;;;4.60;99.90;;;;;;5067125;28;20368;-91
2023/01/23 12:53:59;;;;;;;13.13;9.63;;;4.50;99.90;;;;;;5064717;28;20107;-92
2023/01/23 12:56:32;;;;;;;13.88;10.10;;;4.50;99.90;;;;;;5090648;28;20058;-91
2023/01/23 12:59:22;;;;;;;16.00;10.30;;;4.60;99.90;;;;;;5066150;28;20423;-92
2023/01/23 13:02:02;;;;;;;16.00;10.55;;;4.60;99.90;;;;;;5084266;28;20032;-91
2023/01/23 13:04:54;;;;;;;15.50;11.18;;;4.60;99.90;;;;;;5082576;28;20032;-92
2023/01/23 13:07:40;;;;;;;15.18;10.02;;;4.60;99.90;;;;;;5085771;28;20032;-91
2023/01/23 13:13:20;;;;;;;14.00;10.00;;;4.50;99.90;;;;;;5081226;28;20319;-90
2023/01/23 13:16:13;;;;;;;16.58;11.13;;;4.40;99.90;;;;;;5082189;28;20044;-91